• Join FlightAware (Why Join?)
  • Login
  • US Flag 
05:10AM EDT


 

Airport Tracker/Info


-or-


 

Live Flight TrackerFlight Track Log ✈ RPA3133 ✈ 11-May-2012 ✈ KCMH - KCLT

Flight Track Log - Related Links

Times and Time Zones

All times are in EDT time to prevent confusion due to time zone crossing. See the RPA3133 flight status page for this flight to view local times or setup timezone preferences in your user account.

Time Position Orientation Groundspeed Altitude Reporting Facility
EDT Latitude Longitude Course Direction KTS MPH feet Rate Location/Type
02:07PM 40.0033 -82.9228 170° South 179 206 1,700  Level Indianapolis Center
02:11PM 39.8386 -82.8864 178° South 320 368 9,900 1,980 Climbing Indianapolis Center
02:12PM 39.7531 -82.8819 182° South 315 362 11,900 2,100 Climbing Indianapolis Center
02:13PM 39.6717 -82.8853 182° South 315 362 14,200 1,500 Climbing Indianapolis Center
02:14PM 39.5781 -82.8889 175° South 327 376 14,900 720 Climbing Indianapolis Center
02:15PM 39.4861 -82.8792 168° South 332 382 15,700 1,380 Climbing Indianapolis Center
02:16PM 39.3900 -82.8531 170° South 349 402 17,700 1,620 Climbing Indianapolis Center
02:17PM 39.2900 -82.8300 168° South 360 414 19,000 660 Climbing Indianapolis Center
02:18PM 39.1833 -82.8017 170° South 360 414 19,100 480 Climbing Indianapolis Center
02:19PM 39.0956 -82.7811 167° South 360 414 20,000 1,020 Climbing Indianapolis Center
02:20PM 38.9975 -82.7528 171° South 360 414 21,200 1,440 Climbing Indianapolis Center
02:21PM 38.8908 -82.7300 168° South 372 428 22,900 900 Climbing Indianapolis Center
02:22PM 38.7864 -82.7019 169° South 383 441 23,100 840 Climbing Indianapolis Center
02:23PM 38.6800 -82.6764 169° South 388 447 24,600 1,620 Climbing Indianapolis Center
02:24PM 38.5692 -82.6486 169° South 396 456 26,400 1,500 Climbing Indianapolis Center
02:25PM 38.4481 -82.6183 170° South 402 463 27,600 1,260 Climbing Indianapolis Center
02:26PM 38.3308 -82.5908 168° South 412 474 29,000 660 Climbing Indianapolis Center
02:27PM 38.2139 -82.5606 169° South 422 486 29,000  Level Indianapolis Center
02:28PM 38.1011 -82.5331 169° South 428 493 29,000  Level Indianapolis Center
02:29PM 37.9839 -82.5031 169° South 428 493 29,000  Level Indianapolis Center
02:30PM 37.8689 -82.4758 169° South 428 493 29,000  Level Indianapolis Center
02:31PM 37.7539 -82.4486 168° South 428 493 29,000  Level Indianapolis Center
02:32PM 37.6389 -82.4186 169° South 428 493 29,000  Level Indianapolis Center
02:33PM 37.5261 -82.3917 169° South 421 484 29,000  Level Indianapolis Center
02:34PM 37.4089 -82.3622 169° South 421 484 29,000  Level Indianapolis Center
02:35PM 37.2961 -82.3353 169° South 427 491 29,000  Level Indianapolis Center
02:36PM 37.1789 -82.3058 170° South 427 491 29,000  Level Indianapolis Center
02:37PM 37.0381 -82.2733 169° South 434 499 29,000  Level Atlanta Center
02:38PM 36.9211 -82.2447 169° South 427 491 29,000 -180 Level Atlanta Center
02:39PM 36.8058 -82.2161 175° South 427 491 28,700 -780 Descending Atlanta Center
02:40PM 36.6911 -82.2033 185° South 427 491 27,300 -1,440 Descending Atlanta Center
02:41PM 36.5619 -82.2167 186° South 410 472 25,600 -1,500 Descending Atlanta Center
02:42PM 36.4578 -82.2292 185° South 393 452 24,300 -840 Descending Atlanta Center
02:43PM 36.3539 -82.2394 186° South 382 440 24,000 -180 Descending Atlanta Center
02:44PM 36.2497 -82.2519 186° South 382 440 24,000  Level Atlanta Center
02:45PM 36.1456 -82.2644 186° South 387 445 24,000  Level Atlanta Center
02:46PM 36.0414 -82.2772 168° South 382 440 24,000 -300 Level Atlanta Center
02:47PM 35.9389 -82.2511 160° South 382 440 23,400 -780 Descending Atlanta Center
02:48PM 35.8528 -82.2119 162° South 371 427 22,500 -1,200 Descending Atlanta Center
02:49PM 35.7542 -82.1733 155° Southeast 371 427 21,100 -1,500 Descending Atlanta Center
02:50PM 35.6658 -82.1217 107° East 366 421 19,600 -1,800 Descending Atlanta Center
02:51PM 35.6344 -81.9972 93° East 320 368 17,600 -2,160 Descending Atlanta Center
02:52PM 35.6311 -81.9156 95° East 349 402 16,000 -2,160 Descending Atlanta Center
02:53PM 35.6197 -81.7472 97° East 340 391 13,000 -2,040 Descending Atlanta Center
02:54PM 35.6092 -81.6350 110° East 327 376 11,100 -1,080 Descending Atlanta Center
02:55PM 35.5847 -81.5542 115° Southeast 311 358 11,000 -600 Descending Atlanta Center
02:56PM 35.5494 -81.4608 104° East 299 344 10,100 -1,380 Descending Atlanta Center
02:57PM 35.5306 -81.3644 115° Southeast 289 333 8,300 -1,560 Descending Atlanta Center
02:58PM 35.4972 -81.2761 122° Southeast 282 325 7,000 -960 Descending Atlanta Center
02:59PM 35.4558 -81.1958 125° Southeast 282 325 6,400 -720 Descending Atlanta Center
03:00PM 35.4189 -81.1308 126° Southeast 261 300 5,600 -900 Descending Atlanta Center
03:01PM 35.3797 -81.0636 129° Southeast 249 287 4,700 -960 Descending Atlanta Center
03:02PM 35.3564 -81.0286 136° Southeast 222 255 4,000 -1,140 Descending FAA TRACON SMA TRACON (SMA)
03:03PM 35.3314 -80.9986 151° Southeast 207 238 3,200 -1,440 Descending FAA TRACON SMA TRACON (SMA)
03:03PM 35.2964 -80.9750 174° South 180 207 2,100 -1,200 Descending FAA TRACON SMA TRACON (SMA)
03:04PM 35.2689 -80.9717 174° South 147 169 1,600 -780 Descending FAA TRACON SMA TRACON (SMA)